Time;durP1;ratioP1;P1;durP2;ratioP2;P2;SDS_P1;SDS_P2;PMS_P1;PMS_P2;Temp;Humidity;BMP_temperature;BMP_pressure;BME280_temperature;BME280_humidity;BME280_pressure;Samples;Min_cycle;Max_cycle;Signal;HPM_P1;HPM_P2
2023/05/04 00:00:25;;;;;;;0.52;0.52;;;18.10;64.30;;;18.20;48.44;95610.66;5075324;28;20187;-61
2023/05/04 00:02:52;;;;;;;0.50;0.50;;;18.10;64.40;;;18.21;48.05;95611.44;5074441;28;20201;-61
2023/05/04 00:05:19;;;;;;;0.50;0.50;;;18.10;64.40;;;18.20;48.50;95612.47;5075243;28;20244;-61
2023/05/04 00:07:46;;;;;;;0.50;0.50;;;18.10;64.40;;;18.19;48.28;95608.22;5075352;28;20274;-61
2023/05/04 00:10:14;;;;;;;0.50;0.50;;;18.00;64.30;;;18.18;47.96;95604.75;5074619;28;20593;-61
2023/05/04 00:12:41;;;;;;;0.50;0.50;;;18.00;64.40;;;18.15;48.47;95596.41;5075181;28;20195;-61
2023/05/04 00:15:08;;;;;;;0.50;0.50;;;18.00;64.40;;;18.15;48.10;95594.59;5075156;28;20194;-61
2023/05/04 00:17:35;;;;;;;0.40;0.40;;;18.00;64.40;;;18.14;48.48;95600.09;5075036;28;20195;-60
2023/05/04 00:20:03;;;;;;;0.50;0.50;;;18.00;64.40;;;18.13;48.63;95598.50;5075635;28;20194;-60
2023/05/04 00:22:30;;;;;;;0.50;0.50;;;18.00;64.40;;;18.12;48.34;95588.91;5075067;28;20535;-60
2023/05/04 00:24:57;;;;;;;0.50;0.50;;;18.00;64.40;;;18.11;48.47;95593.41;5075276;28;20622;-60
2023/05/04 00:27:24;;;;;;;0.50;0.50;;;18.00;64.40;;;18.11;48.14;95592.59;5090497;28;20993;-60
2023/05/04 00:29:51;;;;;;;0.50;0.50;;;18.00;64.40;;;18.08;48.52;95592.00;5073899;28;20657;-60
2023/05/04 00:32:18;;;;;;;0.50;0.50;;;18.00;64.40;;;18.07;48.28;95585.06;5074925;28;20191;-60
2023/05/04 00:34:45;;;;;;;0.43;0.43;;;18.00;64.50;;;18.06;48.41;95587.94;5057322;28;20523;-60
2023/05/04 00:37:12;;;;;;;0.45;0.45;;;18.00;64.40;;;18.05;48.20;95588.97;5074381;28;20553;-60
2023/05/04 00:39:40;;;;;;;0.50;0.50;;;17.90;64.40;;;18.04;48.73;95590.00;5074936;28;20199;-60
2023/05/04 00:42:07;;;;;;;0.50;0.50;;;18.00;64.50;;;18.02;48.27;95586.78;5090904;28;20213;-61
2023/05/04 00:44:34;;;;;;;0.50;0.50;;;18.00;64.80;;;18.00;48.41;95578.22;5074833;28;20626;-60
2023/05/04 00:47:02;;;;;;;0.50;0.50;;;17.90;64.40;;;18.00;48.71;95578.22;5075059;28;20225;-60
2023/05/04 00:49:29;;;;;;;0.50;0.50;;;17.90;64.40;;;17.99;48.89;95587.22;5074895;28;20210;-60
2023/05/04 00:51:57;;;;;;;0.50;0.50;;;17.90;64.50;;;17.96;48.67;95580.50;5057294;28;20245;-60
2023/05/04 00:54:25;;;;;;;0.50;0.50;;;17.90;64.50;;;17.97;48.56;95589.25;5074696;28;20187;-59
2023/05/04 00:56:52;;;;;;;0.40;0.40;;;17.90;65.40;;;17.95;48.48;95584.19;5074150;28;20183;-60
2023/05/04 00:59:19;;;;;;;0.50;0.50;;;17.90;64.40;;;17.93;48.38;95575.59;5074537;28;20191;-60
2023/05/04 01:01:46;;;;;;;0.50;0.50;;;17.90;64.60;;;17.92;48.21;95579.31;5074650;28;20197;-59
2023/05/04 01:04:15;;;;;;;0.40;0.40;;;17.90;64.50;;;17.91;48.46;95583.78;5074896;28;20596;-60
2023/05/04 01:07:25;;;;;;;0.40;0.40;;;17.80;64.50;;;17.88;48.25;95589.56;5073987;28;20284;-60
2023/05/04 01:10:26;;;;;;;0.50;0.50;;;17.90;64.60;;;17.85;48.34;95591.84;5057095;28;20226;-59
2023/05/04 01:13:03;;;;;;;0.50;0.50;;;17.80;64.10;;;17.80;48.49;95586.34;5074563;28;20282;-61
2023/05/04 01:15:31;;;;;;;0.50;0.50;;;17.80;64.30;;;17.81;48.75;95590.63;5075131;28;20210;-59
2023/05/04 01:17:58;;;;;;;0.50;0.50;;;17.80;64.40;;;17.79;48.24;95580.25;5090699;28;20225;-60
2023/05/04 01:20:26;;;;;;;0.50;0.50;;;17.80;64.40;;;17.79;48.35;95585.56;5073871;28;20191;-59
2023/05/04 01:22:55;;;;;;;0.50;0.50;;;17.70;64.40;;;17.70;48.48;95571.78;5074663;28;20280;-60
2023/05/04 01:25:45;;;;;;;0.50;0.50;;;17.80;64.50;;;17.75;48.37;95577.22;5073452;28;20199;-59
2023/05/04 01:28:25;;;;;;;0.50;0.50;;;17.70;64.50;;;17.73;48.48;95581.94;5074258;28;20190;-59
2023/05/04 01:30:58;;;;;;;0.50;0.50;;;17.70;64.50;;;17.72;48.67;95580.34;5074037;28;20507;-59
2023/05/04 01:33:27;;;;;;;0.50;0.50;;;17.70;64.40;;;17.71;48.68;95570.75;5073832;28;20515;-59
2023/05/04 01:35:55;;;;;;;0.50;0.50;;;17.70;64.50;;;17.71;48.35;95576.06;5090266;28;20199;-59
2023/05/04 01:38:24;;;;;;;0.50;0.50;;;17.70;65.30;;;17.68;48.72;95567.72;5074096;28;20179;-60
2023/05/04 01:40:51;;;;;;;0.50;0.50;;;17.70;64.40;;;17.69;48.62;95562.19;5074256;28;20191;-60
2023/05/04 01:43:18;;;;;;;0.50;0.50;;;17.70;64.50;;;17.69;49.01;95558.75;5074308;28;20209;-58
2023/05/04 01:45:45;;;;;;;0.45;0.45;;;17.60;64.50;;;17.63;48.52;95549.81;5074525;28;20187;-60
2023/05/04 01:48:12;;;;;;;0.50;0.50;;;17.60;64.50;;;17.65;48.96;95574.28;5074087;28;20278;-60
2023/05/04 01:50:40;;;;;;;0.50;0.50;;;17.70;64.50;;;17.62;47.93;95565.94;5093153;28;20263;-60
2023/05/04 01:53:07;;;;;;;0.60;0.60;;;17.60;63.80;;;17.56;47.75;95571.09;5076773;28;20625;-60
2023/05/04 01:55:34;;;;;;;0.50;0.50;;;17.60;63.80;;;17.52;48.09;95569.91;5076865;28;20187;-59
2023/05/04 01:58:02;;;;;;;0.50;0.50;;;17.60;63.60;;;17.50;48.04;95571.16;5076679;28;20195;-60
2023/05/04 02:00:29;;;;;;;0.60;0.60;;;17.50;63.80;;;17.45;47.74;95577.13;5093443;28;20259;-60
2023/05/04 02:02:59;;;;;;;0.50;0.50;;;17.50;63.80;;;17.43;48.11;95565.91;5076611;28;20195;-59
2023/05/04 02:05:27;;;;;;;0.50;0.50;;;17.50;63.90;;;17.42;48.22;95566.97;5076589;28;20210;-52
2023/05/04 02:07:54;;;;;;;0.60;0.60;;;17.50;64.00;;;17.41;48.43;95571.44;5093392;28;20680;-55
2023/05/04 02:10:21;;;;;;;0.50;0.50;;;17.40;64.00;;;17.39;48.08;95562.91;5077985;28;20249;-55
2023/05/04 02:12:49;;;;;;;0.65;0.65;;;17.40;64.00;;;17.38;48.56;95566.59;5077454;28;20690;-56
2023/05/04 02:15:16;;;;;;;0.50;0.50;;;17.40;64.10;;;17.37;48.45;95562.31;5076514;28;20187;-54
2023/05/04 02:17:44;;;;;;;0.52;0.52;;;17.40;64.20;;;17.37;48.39;95570.25;5076322;28;20683;-56
2023/05/04 02:20:12;;;;;;;0.60;0.60;;;17.40;64.40;;;17.36;48.39;95567.84;5076330;28;20195;-54
2023/05/04 02:22:41;;;;;;;0.50;0.50;;;17.30;64.40;;;17.37;48.60;95569.44;5076389;28;20266;-53
2023/05/04 02:25:08;;;;;;;0.40;0.40;;;17.40;64.40;;;17.34;48.56;95562.72;5077424;28;20191;-52
2023/05/04 02:27:36;;;;;;;0.40;0.40;;;17.40;64.50;;;17.36;48.71;95562.53;5093055;28;20222;-54
2023/05/04 02:30:04;;;;;;;0.52;0.52;;;17.30;64.40;;;17.36;48.85;95562.53;5092841;28;20318;-53
2023/05/04 02:32:31;;;;;;;0.50;0.50;;;17.40;64.50;;;17.35;48.62;95563.56;5077299;28;20205;-55
2023/05/04 02:34:58;;;;;;;0.40;0.40;;;17.30;64.50;;;17.36;49.28;95551.94;5092874;28;20626;-55
2023/05/04 02:37:27;;;;;;;0.52;0.52;;;17.40;64.60;;;17.35;48.53;95555.59;5059935;28;20206;-55
2023/05/04 02:39:54;;;;;;;0.50;0.50;;;17.40;64.60;;;17.34;48.77;95556.63;5077147;28;20201;-53
2023/05/04 02:42:22;;;;;;;0.60;0.60;;;17.30;64.50;;;17.34;49.25;95552.13;5075963;28;20198;-55
2023/05/04 02:44:49;;;;;;;0.52;0.52;;;17.40;64.70;;;17.33;48.73;95553.16;5076793;28;20198;-54
2023/05/04 02:47:16;;;;;;;0.60;0.60;;;17.40;64.60;;;17.33;48.65;95557.66;5092473;28;20585;-54
2023/05/04 02:49:43;;;;;;;0.50;0.50;;;17.40;64.60;;;17.33;48.64;95561.09;5075752;28;20221;-51
2023/05/04 02:52:10;;;;;;;0.50;0.50;;;17.30;64.60;;;17.31;49.13;95559.69;5076610;28;20249;-53
2023/05/04 02:54:37;;;;;;;0.60;0.60;;;17.30;64.60;;;17.29;49.17;95558.06;5076890;28;20277;-51
2023/05/04 02:57:05;;;;;;;0.50;0.50;;;17.30;64.60;;;17.30;48.75;95569.50;5076484;28;20278;-53
2023/05/04 02:59:33;;;;;;;0.60;0.60;;;17.30;64.60;;;17.29;49.27;95566.03;5076355;28;20244;-52
2023/05/04 03:02:00;;;;;;;0.52;0.52;;;17.30;64.60;;;17.29;49.23;95566.03;5092047;28;20256;-55
2023/05/04 03:04:27;;;;;;;0.50;0.50;;;17.30;64.60;;;17.28;49.23;95572.38;5076343;28;20198;-55
2023/05/04 03:06:54;;;;;;;0.50;0.50;;;17.30;64.60;;;17.27;48.83;95576.06;5075368;28;20198;-57
2023/05/04 03:09:21;;;;;;;0.50;0.50;;;17.30;64.60;;;17.26;49.26;95569.13;5076275;28;20217;-52
2023/05/04 03:11:48;;;;;;;0.50;0.50;;;17.30;64.60;;;17.26;49.21;95571.00;5075411;28;20186;-55
2023/05/04 03:14:15;;;;;;;0.50;0.50;;;17.30;64.60;;;17.26;49.14;95571.78;5092128;28;20260;-57
2023/05/04 03:16:44;;;;;;;0.40;0.40;;;17.30;64.60;;;17.23;48.88;95574.84;5075200;28;20298;-52
2023/05/04 03:19:11;;;;;;;0.60;0.60;;;17.30;64.60;;;17.23;48.86;95574.84;5059212;28;20190;-54
2023/05/04 03:21:38;;;;;;;0.50;0.50;;;17.30;64.60;;;17.22;48.90;95575.09;5091812;28;20294;-54
2023/05/04 03:24:05;;;;;;;0.50;0.50;;;17.30;64.60;;;17.21;49.31;95571.63;5076086;28;20183;-53
2023/05/04 03:26:33;;;;;;;0.50;0.50;;;17.20;64.50;;;17.22;48.95;95583.88;5075966;28;20285;-57
2023/05/04 03:29:00;;;;;;;0.50;0.50;;;17.30;64.60;;;17.21;49.29;95586.72;5075958;28;20237;-57
2023/05/04 03:31:27;;;;;;;0.50;0.50;;;17.20;64.50;;;17.19;49.35;95586.13;5075956;28;20191;-54
2023/05/04 03:33:55;;;;;;;0.52;0.52;;;17.30;64.60;;;17.18;49.26;95573.91;5075103;28;20647;-53
2023/05/04 03:36:22;;;;;;;0.50;0.50;;;17.20;64.60;;;17.18;49.58;95577.34;5075758;28;20194;-55
2023/05/04 03:38:50;;;;;;;0.50;0.50;;;17.20;64.60;;;17.17;49.00;95577.56;5091629;28;20199;-51
2023/05/04 03:41:18;;;;;;;0.50;0.50;;;17.30;64.70;;;17.16;49.00;95575.94;5092219;28;20195;-53
2023/05/04 03:43:45;;;;;;;0.50;0.50;;;17.20;64.60;;;17.16;49.29;95575.94;5075736;28;20195;-56
2023/05/04 03:46:12;;;;;;;0.50;0.50;;;17.20;64.60;;;17.14;49.23;95573.53;5076104;28;20580;-55
2023/05/04 03:48:40;;;;;;;0.50;0.50;;;17.20;64.60;;;17.13;49.05;95583.31;5075611;28;20202;-51
2023/05/04 03:51:11;;;;;;;0.60;0.60;;;17.20;64.60;;;17.11;49.09;95582.72;5058567;28;20193;-52
2023/05/04 03:53:40;;;;;;;0.50;0.50;;;17.20;64.60;;;17.12;49.34;95588.81;5074515;28;20194;-53
2023/05/04 03:56:11;;;;;;;0.50;0.50;;;17.20;64.70;;;17.10;49.56;95583.75;5074655;28;20213;-55
2023/05/04 03:58:39;;;;;;;0.70;0.70;;;17.20;64.60;;;17.09;49.30;95589.28;5058081;28;20195;-52
2023/05/04 04:01:07;;;;;;;0.57;0.57;;;17.20;64.70;;;17.09;48.95;95583.97;5074375;28;20630;-53
2023/05/04 04:03:35;;;;;;;0.50;0.50;;;17.20;64.70;;;17.08;49.22;95580.50;5074346;28;20202;-54
2023/05/04 04:06:02;;;;;;;0.50;0.50;;;17.20;64.70;;;17.07;49.44;95578.88;5074303;28;20207;-54
2023/05/04 04:08:30;;;;;;;0.55;0.55;;;17.20;64.70;;;17.07;49.10;95586.00;5075164;28;20252;-51
2023/05/04 04:10:57;;;;;;;0.57;0.57;;;17.10;64.70;;;17.06;49.14;95581.75;5091065;28;20222;-52
2023/05/04 04:13:25;;;;;;;0.43;0.43;;;17.10;65.60;;;17.05;49.46;95586.25;5073475;28;20588;-56
2023/05/04 04:15:52;;;;;;;0.50;0.50;;;17.10;64.70;;;17.04;49.23;95581.97;5074283;28;20248;-52
2023/05/04 04:18:19;;;;;;;0.50;0.50;;;17.10;64.70;;;17.05;49.51;95580.94;5074358;28;20191;-51
2023/05/04 04:20:46;;;;;;;0.52;0.52;;;17.10;64.70;;;17.03;49.61;95582.97;5075363;28;20255;-54
2023/05/04 04:23:13;;;;;;;0.57;0.57;;;17.10;64.70;;;17.03;49.12;95588.28;5075014;28;20238;-53
2023/05/04 04:25:40;;;;;;;0.50;0.50;;;17.10;64.80;;;17.02;49.69;95591.97;5075210;28;20190;-54
2023/05/04 04:28:11;;;;;;;0.50;0.50;;;17.10;64.80;;;17.01;49.46;95587.69;5074968;28;20206;-52
2023/05/04 04:30:38;;;;;;;0.50;0.50;;;17.10;64.80;;;17.02;49.50;95596.47;5074895;28;20215;-53
2023/05/04 04:33:05;;;;;;;0.50;0.50;;;17.10;64.80;;;17.01;49.78;95592.19;5075194;28;20244;-52
2023/05/04 04:35:32;;;;;;;0.50;0.50;;;17.10;64.90;;;17.01;49.30;95586.88;5074948;28;20220;-52
2023/05/04 04:38:00;;;;;;;0.50;0.50;;;17.10;64.90;;;17.01;49.32;95586.88;5073913;28;20205;-51
2023/05/04 04:40:29;;;;;;;0.40;0.40;;;17.10;64.90;;;17.00;49.75;95588.69;5074914;28;20201;-54
2023/05/04 04:42:57;;;;;;;0.60;0.60;;;17.10;64.90;;;17.00;49.34;95591.34;5074819;28;20684;-52
2023/05/04 04:45:24;;;;;;;0.50;0.50;;;17.10;64.90;;;17.01;49.68;95592.19;5074788;28;20710;-51
2023/05/04 04:47:51;;;;;;;0.52;0.52;;;17.10;64.90;;;17.00;49.42;95593.19;5074919;28;20518;-53
2023/05/04 04:50:18;;;;;;;0.60;0.60;;;17.10;64.90;;;17.00;49.47;95601.16;5074002;28;20214;-51
2023/05/04 04:52:45;;;;;;;0.50;0.50;;;17.10;65.00;;;17.00;50.01;95601.16;5074767;28;20195;-55
2023/05/04 04:55:14;;;;;;;0.50;0.50;;;17.10;65.00;;;16.99;49.48;95599.53;5074087;28;20187;-52
2023/05/04 04:57:41;;;;;;;0.50;0.50;;;17.10;65.00;;;16.99;49.84;95596.88;5075528;28;20561;-54
2023/05/04 05:00:09;;;;;;;0.50;0.50;;;17.10;65.00;;;16.99;49.89;95595.06;5074480;28;20206;-52
2023/05/04 05:02:36;;;;;;;0.50;0.50;;;17.10;65.00;;;16.99;49.52;95591.56;5074861;28;20203;-55
2023/05/04 05:05:04;;;;;;;0.50;0.50;;;17.10;65.00;;;16.99;49.52;95597.69;5073785;28;20630;-51
2023/05/04 05:07:31;;;;;;;0.60;0.60;;;17.10;65.00;;;17.00;49.79;95609.09;5073766;28;20205;-51
2023/05/04 05:09:59;;;;;;;0.50;0.50;;;17.10;65.00;;;17.00;49.39;95606.44;5074620;28;20215;-53
2023/05/04 05:12:26;;;;;;;0.50;0.50;;;17.10;65.10;;;16.99;50.10;95603.00;5074590;28;20565;-54
2023/05/04 05:14:53;;;;;;;0.50;0.50;;;17.10;65.00;;;16.99;49.95;95595.06;5074570;28;20191;-53
2023/05/04 05:17:21;;;;;;;0.60;0.60;;;17.10;65.10;;;17.00;49.51;95606.44;5074529;28;20273;-56
2023/05/04 05:19:48;;;;;;;0.50;0.50;;;17.10;65.10;;;17.01;49.86;95600.13;5074861;28;20206;-54
2023/05/04 05:22:16;;;;;;;0.60;0.60;;;17.10;65.10;;;17.00;49.42;95601.16;5074404;28;20321;-55
2023/05/04 05:24:43;;;;;;;0.60;0.60;;;17.10;65.00;;;17.00;49.83;95601.16;5078078;28;20195;-53
2023/05/04 05:27:10;;;;;;;0.50;0.50;;;17.10;65.10;;;16.96;49.73;95598.13;5078500;28;20194;-54
2023/05/04 05:29:37;;;;;;;0.55;0.55;;;17.10;65.10;;;17.01;49.89;95605.44;5078276;28;20212;-53
2023/05/04 05:32:05;;;;;;;0.50;0.50;;;17.10;65.10;;;17.01;49.74;95603.56;5078195;28;20526;-54
2023/05/04 05:34:32;;;;;;;0.50;0.50;;;17.10;65.10;;;17.02;49.70;95607.84;5078006;28;20622;-53
2023/05/04 05:36:59;;;;;;;0.50;0.50;;;17.10;65.10;;;17.01;50.21;95606.22;5078058;28;20194;-53
2023/05/04 05:39:27;;;;;;;0.60;0.60;;;17.10;65.10;;;17.02;49.85;95601.75;5078348;28;20194;-51
2023/05/04 05:41:57;;;;;;;0.50;0.50;;;17.10;65.10;;;17.01;50.01;95594.84;5078212;28;20228;-55
2023/05/04 05:44:24;;;;;;;0.55;0.55;;;17.10;65.10;;;17.03;49.55;95601.53;5078182;28;20187;-52
2023/05/04 05:46:50;;;;;;;0.60;0.60;;;17.10;65.00;;;17.03;50.08;95609.50;5077856;28;20195;-56
2023/05/04 05:49:18;;;;;;;0.57;0.57;;;17.10;65.10;;;17.05;49.48;95603.97;5077803;28;20206;-54
2023/05/04 05:51:45;;;;;;;0.52;0.52;;;17.10;65.10;;;17.05;49.90;95611.91;5077216;28;20577;-53
2023/05/04 05:54:14;;;;;;;0.50;0.50;;;17.10;65.10;;;17.05;49.60;95603.97;5077708;28;20278;-54
2023/05/04 05:56:41;;;;;;;0.50;0.50;;;17.10;65.10;;;17.06;50.02;95610.88;5076822;28;20563;-55
2023/05/04 05:59:08;;;;;;;0.50;0.50;;;17.10;65.10;;;17.06;49.78;95608.25;5077633;28;20195;-52
2023/05/04 06:01:35;;;;;;;0.40;0.40;;;17.10;65.10;;;17.07;50.02;95607.22;5077638;28;20194;-53
2023/05/04 06:04:02;;;;;;;0.50;0.50;;;17.10;65.00;;;17.07;49.74;95617.81;5077557;28;20551;-55
2023/05/04 06:06:29;;;;;;;0.50;0.50;;;17.20;65.10;;;17.07;49.44;95609.88;5077635;28;20194;-53
2023/05/04 06:08:56;;;;;;;0.50;0.50;;;17.10;65.10;;;17.07;50.16;95608.03;5077295;28;20630;-54
2023/05/04 06:11:23;;;;;;;0.60;0.60;;;17.10;65.10;;;17.08;49.94;95609.66;5077657;28;20211;-54
2023/05/04 06:13:50;;;;;;;0.50;0.50;;;17.10;65.10;;;17.09;49.85;95605.19;5078216;28;20195;-55
2023/05/04 06:16:18;;;;;;;0.57;0.57;;;17.20;65.10;;;17.09;49.34;95600.66;5076516;28;20194;-55
2023/05/04 06:18:45;;;;;;;0.50;0.50;;;17.10;65.00;;;17.10;49.92;95609.41;5077412;28;20244;-56
2023/05/04 06:21:12;;;;;;;0.50;0.50;;;17.20;65.00;;;17.10;49.82;95607.59;5077449;28;20203;-55
2023/05/04 06:23:40;;;;;;;0.60;0.60;;;17.20;65.00;;;17.10;49.73;95599.66;5077117;28;20627;-53
2023/05/04 06:26:07;;;;;;;0.50;0.50;;;17.20;65.00;;;17.11;49.48;95603.09;5077668;28;20618;-55
2023/05/04 06:28:34;;;;;;;0.50;0.50;;;17.20;65.00;;;17.12;49.32;95602.91;5077464;28;20190;-53
2023/05/04 06:31:02;;;;;;;0.50;0.50;;;17.20;65.00;;;17.12;49.86;95596.78;5077532;28;20776;-56
2023/05/04 06:33:29;;;;;;;0.50;0.50;;;17.20;65.00;;;17.13;49.28;95595.75;5077276;28;20274;-56
2023/05/04 06:35:57;;;;;;;0.50;0.50;;;17.20;64.90;;;17.13;49.72;95598.41;5076125;28;20626;-55
2023/05/04 06:38:24;;;;;;;0.50;0.50;;;17.20;64.90;;;17.09;49.60;95589.28;5077171;28;20198;-53
2023/05/04 06:40:51;;;;;;;0.50;0.50;;;17.20;64.90;;;17.13;49.72;95593.91;5077258;28;20529;-57
2023/05/04 06:43:18;;;;;;;0.50;0.50;;;17.20;64.80;;;17.16;49.58;95595.31;5076826;28;20191;-53
2023/05/04 06:45:45;;;;;;;0.47;0.47;;;17.20;64.80;;;17.16;49.80;95597.16;5077031;28;20210;-55
2023/05/04 06:48:12;;;;;;;0.50;0.50;;;17.20;64.80;;;17.17;49.73;95596.13;5076852;28;20191;-54
2023/05/04 06:50:40;;;;;;;0.50;0.50;;;17.20;64.80;;;17.17;49.63;95596.94;5076786;28;20214;-55
2023/05/04 06:53:09;;;;;;;0.52;0.52;;;17.20;64.80;;;17.18;49.23;95595.13;5076850;28;20264;-57
2023/05/04 06:55:37;;;;;;;0.50;0.50;;;17.30;64.80;;;17.19;49.18;95594.09;5077125;28;20573;-55
2023/05/04 06:58:04;;;;;;;0.50;0.50;;;17.30;64.70;;;17.19;49.29;95602.03;5076550;28;20622;-55
2023/05/04 07:00:31;;;;;;;0.47;0.47;;;17.30;64.80;;;17.19;49.38;95599.38;5077121;28;20209;-58
2023/05/04 07:02:58;;;;;;;0.50;0.50;;;17.20;64.70;;;17.20;49.15;95598.34;5075813;28;20198;-55
2023/05/04 07:05:27;;;;;;;0.60;0.60;;;17.20;64.70;;;17.19;49.39;95597.53;5076404;28;20644;-54
2023/05/04 07:07:54;;;;;;;0.60;0.60;;;17.30;64.80;;;17.21;49.52;95598.13;5076628;28;20195;-53
2023/05/04 07:10:21;;;;;;;0.60;0.60;;;17.30;65.70;;;17.21;49.02;95595.50;5076132;28;20553;-53
2023/05/04 07:12:48;;;;;;;0.60;0.60;;;17.20;64.70;;;17.22;49.43;95599.78;5076665;28;20183;-55
2023/05/04 07:15:16;;;;;;;0.50;0.50;;;17.20;64.70;;;17.22;49.07;95597.13;5076269;28;20578;-54
2023/05/04 07:17:43;;;;;;;0.50;0.50;;;17.30;64.70;;;17.24;49.08;95600.34;5076117;28;20205;-52
2023/05/04 07:20:11;;;;;;;0.50;0.50;;;17.30;64.70;;;17.21;49.08;95594.66;5076278;28;20199;-55
2023/05/04 07:22:38;;;;;;;0.50;0.50;;;17.30;64.70;;;17.25;49.05;95598.53;5075900;28;20246;-57
2023/05/04 07:25:06;;;;;;;0.50;0.50;;;17.30;64.70;;;17.26;49.08;95606.25;5076242;28;20209;-55
2023/05/04 07:27:34;;;;;;;0.52;0.52;;;17.30;64.70;;;17.27;49.06;95599.09;5075975;28;20221;-57
2023/05/04 07:30:02;;;;;;;0.60;0.60;;;17.30;64.60;;;17.28;48.91;95603.38;5075027;28;20551;-55
2023/05/04 07:32:29;;;;;;;0.50;0.50;;;17.30;64.60;;;17.28;48.90;95603.38;5075276;28;20373;-52
2023/05/04 07:34:56;;;;;;;0.50;0.50;;;17.30;64.60;;;17.29;48.76;95599.69;5075832;28;20231;-55
2023/05/04 07:37:23;;;;;;;0.50;0.50;;;17.30;64.50;;;17.31;49.08;95600.31;5076013;28;20202;-57
2023/05/04 07:39:50;;;;;;;0.50;0.50;;;17.30;64.60;;;17.31;49.13;95599.47;5075897;28;20187;-52
2023/05/04 07:42:17;;;;;;;0.50;0.50;;;17.30;64.50;;;17.32;48.85;95598.44;5076031;28;20187;-55
2023/05/04 07:44:44;;;;;;;0.60;0.60;;;17.40;64.60;;;17.34;48.84;95596.41;5076155;28;20193;-55
2023/05/04 07:47:12;;;;;;;0.40;0.40;;;17.30;64.40;;;17.35;48.58;95598.03;5074968;28;20614;-54
2023/05/04 07:49:39;;;;;;;0.50;0.50;;;17.30;64.40;;;17.35;48.71;95592.72;5075702;28;20187;-57
2023/05/04 07:52:06;;;;;;;0.50;0.50;;;17.40;64.40;;;17.34;48.58;95594.56;5075563;28;20210;-57
2023/05/04 07:54:33;;;;;;;0.50;0.50;;;17.40;64.40;;;17.38;48.97;95594.94;5075700;28;20195;-58
2023/05/04 07:57:03;;;;;;;0.50;0.50;;;17.40;64.50;;;17.38;48.54;95590.44;5075397;28;20187;-56
2023/05/04 07:59:31;;;;;;;0.60;0.60;;;17.40;64.30;;;17.39;48.62;95600.03;5075288;28;20502;-52
2023/05/04 08:01:58;;;;;;;0.50;0.50;;;17.40;64.30;;;17.40;48.75;95592.88;5075327;28;20256;-53
2023/05/04 08:04:25;;;;;;;0.63;0.63;;;17.40;64.30;;;17.42;48.90;95590.84;5075719;28;20198;-58
2023/05/04 08:06:52;;;;;;;0.50;0.50;;;17.40;64.20;;;17.42;48.26;95588.97;5075236;28;20195;-59
2023/05/04 08:09:19;;;;;;;0.50;0.50;;;17.40;64.20;;;17.42;48.64;95585.53;5075367;28;20203;-58
2023/05/04 08:11:47;;;;;;;0.55;0.55;;;17.40;64.20;;;17.45;48.49;95582.41;5075103;28;20650;-59
2023/05/04 08:14:14;;;;;;;0.50;0.50;;;17.40;64.20;;;17.45;49.00;95590.38;5075103;28;20264;-59
2023/05/04 08:16:41;;;;;;;0.52;0.52;;;17.40;64.20;;;17.47;48.70;95587.50;5074306;28;20195;-58
2023/05/04 08:19:08;;;;;;;0.50;0.50;;;17.40;64.10;;;17.47;48.29;95582.19;5074122;28;20657;-60
2023/05/04 08:21:35;;;;;;;0.60;0.60;;;17.50;64.00;;;17.47;48.38;95576.88;5074961;28;20203;-58
2023/05/04 08:24:03;;;;;;;0.60;0.60;;;17.50;64.00;;;17.48;48.49;95583.81;5074520;28;20187;-55
2023/05/04 08:26:31;;;;;;;0.50;0.50;;;17.50;64.10;;;17.50;48.48;95579.91;5075298;28;20268;-59
2023/05/04 08:29:06;;;;;;;0.50;0.50;;;17.50;64.00;;;17.50;48.03;95577.25;5075341;28;20206;-59
2023/05/04 08:31:34;;;;;;;0.40;0.40;;;17.50;63.90;;;17.50;48.56;95574.63;5074628;28;20292;-59
2023/05/04 08:34:02;;;;;;;0.50;0.50;;;17.50;64.10;;;17.51;48.57;95573.59;5074975;28;20187;-59
2023/05/04 08:36:29;;;;;;;0.68;0.68;;;17.50;64.10;;;17.53;48.53;95574.19;5074308;28;20191;-59
2023/05/04 08:38:57;;;;;;;0.55;0.55;;;17.50;64.10;;;17.54;48.13;95589.09;5074891;28;20664;-59
2023/05/04 08:41:23;;;;;;;0.50;0.50;;;17.50;64.10;;;17.56;48.33;95580.91;5075129;28;20195;-59
2023/05/04 08:43:51;;;;;;;0.50;0.50;;;17.50;64.20;;;17.57;48.22;95585.19;5073991;28;20614;-59
2023/05/04 08:46:18;;;;;;;0.60;0.60;;;17.50;64.20;;;17.57;48.46;95583.31;5074852;28;20547;-59
2023/05/04 08:48:46;;;;;;;0.50;0.50;;;17.50;64.10;;;17.58;48.55;95577.00;5074828;28;20195;-57
2023/05/04 08:51:14;;;;;;;0.60;0.60;;;17.60;64.20;;;17.60;48.42;95585.56;5074736;28;20709;-58
2023/05/04 08:53:46;;;;;;;0.60;0.60;;;17.50;63.90;;;17.61;48.06;95589.00;5074815;28;20190;-56
2023/05/04 08:56:15;;;;;;;0.50;0.50;;;17.60;64.00;;;17.64;48.22;95583.28;5074303;28;20198;-59
2023/05/04 08:58:50;;;;;;;0.50;0.50;;;17.60;64.10;;;17.64;48.04;95585.09;5075334;28;20614;-60
2023/05/04 09:01:19;;;;;;;0.50;0.50;;;17.60;64.00;;;17.65;48.25;95584.91;5078825;28;20576;-59
2023/05/04 09:03:47;;;;;;;0.50;0.50;;;17.60;64.10;;;17.67;48.18;95580.16;5079320;28;20597;-58
2023/05/04 09:06:15;;;;;;;0.50;0.50;;;17.60;64.10;;;17.67;48.04;95577.50;5078662;28;20205;-59
2023/05/04 09:08:42;;;;;;;0.45;0.45;;;17.60;64.00;;;17.69;47.99;95572.81;5078217;28;20252;-59
2023/05/04 09:11:09;;;;;;;0.50;0.50;;;17.60;64.00;;;17.71;48.21;95565.44;5078509;28;20206;-60
2023/05/04 09:13:37;;;;;;;0.50;0.50;;;17.70;64.10;;;17.73;48.35;95565.22;5077939;28;20194;-60
2023/05/04 09:16:06;;;;;;;0.60;0.60;;;17.60;63.80;;;17.73;48.22;95568.66;5077864;28;20191;-59
2023/05/04 09:18:38;;;;;;;0.50;0.50;;;17.70;63.90;;;17.75;48.17;95560.50;5094310;28;20206;-60
2023/05/04 09:21:06;;;;;;;0.50;0.50;;;17.70;64.80;;;17.75;48.01;95558.66;5078523;28;20189;-57
2023/05/04 09:23:48;;;;;;;0.50;0.50;;;17.70;64.10;;;17.78;48.40;95562.69;5078434;28;20665;-59
2023/05/04 09:26:32;;;;;;;0.50;0.50;;;17.70;63.90;;;17.75;48.03;95557.84;5078879;28;20183;-59
2023/05/04 09:29:13;;;;;;;0.50;0.50;;;17.70;64.00;;;17.79;48.11;95561.69;5077470;28;20269;-60
2023/05/04 09:31:46;;;;;;;0.50;0.50;;;17.70;63.90;;;17.80;47.85;95557.16;5077214;28;20214;-59
2023/05/04 09:34:13;;;;;;;0.50;0.50;;;17.70;63.90;;;17.82;47.85;95550.63;5078148;28;20194;-58
2023/05/04 09:36:41;;;;;;;0.43;0.43;;;17.80;64.00;;;17.83;48.31;95554.09;5078541;28;20563;-59
2023/05/04 09:39:12;;;;;;;0.57;0.57;;;17.80;63.90;;;17.85;47.76;95549.38;5077982;28;20194;-58
2023/05/04 09:41:40;;;;;;;0.60;0.60;;;17.80;63.90;;;17.86;48.09;95543.84;5078352;28;20587;-59
2023/05/04 09:44:20;;;;;;;0.50;0.50;;;17.80;63.90;;;17.87;47.95;95550.78;5077382;28;20205;-60
2023/05/04 09:46:57;;;;;;;0.50;0.50;;;17.80;63.90;;;17.88;47.77;95546.25;5078732;28;20552;-58
2023/05/04 09:49:36;;;;;;;0.50;0.50;;;17.80;63.90;;;17.85;48.14;95536.91;5078157;28;20191;-59
2023/05/04 09:52:05;;;;;;;0.60;0.60;;;17.80;63.90;;;17.90;48.19;95550.31;5093724;28;20230;-59
2023/05/04 09:54:35;;;;;;;0.50;0.50;;;17.80;63.90;;;17.92;48.03;95536.84;5077747;28;20194;-59
2023/05/04 09:57:14;;;;;;;0.50;0.50;;;17.80;63.90;;;17.93;48.29;95536.63;5077741;28;20248;-59
2023/05/04 09:59:42;;;;;;;0.50;0.50;;;17.80;63.90;;;17.96;47.78;95539.91;5078048;28;20175;-59
2023/05/04 10:02:11;;;;;;;0.50;0.50;;;17.80;64.10;;;17.97;47.91;95530.88;5077042;28;20519;-60
2023/05/04 10:04:50;;;;;;;0.60;0.60;;;17.80;64.00;;;17.98;47.95;95529.84;5077611;28;20620;-59
2023/05/04 10:07:19;;;;;;;0.50;0.50;;;17.90;64.00;;;18.00;47.81;95519.81;5093664;28;20224;-58
2023/05/04 10:09:48;;;;;;;0.50;0.50;;;17.90;64.00;;;18.01;47.81;95521.44;5075775;28;20281;-59
2023/05/04 10:12:15;;;;;;;0.50;0.50;;;17.90;64.00;;;18.02;47.97;95518.56;5076953;28;20309;-61
2023/05/04 10:14:45;;;;;;;0.50;0.50;;;17.90;64.00;;;18.05;48.21;95522.63;5076765;28;20191;-60
2023/05/04 10:18:13;;;;;;;0.50;0.50;;;17.90;64.00;;;18.04;48.32;95515.69;5077894;28;20587;-59
2023/05/04 10:21:23;;;;;;;0.60;0.60;;;17.90;63.90;;;18.05;48.23;95522.63;5071929;28;20211;-56
2023/05/04 10:24:10;;;;;;;0.50;0.50;;;18.00;63.90;;;18.06;47.83;95526.88;5093190;28;20294;-56
2023/05/04 10:26:54;;;;;;;0.50;0.50;;;18.00;63.80;;;18.06;47.65;95519.72;5059727;28;20187;-59